sensor_id;sensor_type;location;lat;lon;timestamp;P1;durP1;ratioP1;P2;durP2;ratioP2
75367;SDS011;63954;51.948;5.888;2022-12-18T00:01:14;29.67;;;13.27;;
75367;SDS011;63954;51.948;5.888;2022-12-18T00:03:43;48.35;;;19.90;;
75367;SDS011;63954;51.948;5.888;2022-12-18T00:06:11;34.05;;;14.93;;
75367;SDS011;63954;51.948;5.888;2022-12-18T00:08:39;33.65;;;15.63;;
75367;SDS011;63954;51.948;5.888;2022-12-18T00:11:07;24.85;;;11.05;;
75367;SDS011;63954;51.948;5.888;2022-12-18T00:13:38;29.58;;;13.80;;
75367;SDS011;63954;51.948;5.888;2022-12-18T00:16:06;45.80;;;17.50;;
75367;SDS011;63954;51.948;5.888;2022-12-18T00:18:35;32.97;;;12.98;;
75367;SDS011;63954;51.948;5.888;2022-12-18T00:21:03;37.58;;;13.02;;
75367;SDS011;63954;51.948;5.888;2022-12-18T00:23:34;38.45;;;16.45;;
75367;SDS011;63954;51.948;5.888;2022-12-18T00:26:04;26.80;;;11.75;;
75367;SDS011;63954;51.948;5.888;2022-12-18T00:28:33;33.45;;;15.35;;
75367;SDS011;63954;51.948;5.888;2022-12-18T00:31:00;34.40;;;13.85;;
75367;SDS011;63954;51.948;5.888;2022-12-18T00:33:28;48.72;;;21.33;;
75367;SDS011;63954;51.948;5.888;2022-12-18T00:35:59;35.83;;;16.38;;
75367;SDS011;63954;51.948;5.888;2022-12-18T00:38:27;33.20;;;14.40;;
75367;SDS011;63954;51.948;5.888;2022-12-18T00:40:56;38.90;;;18.70;;
75367;SDS011;63954;51.948;5.888;2022-12-18T00:43:23;30.80;;;12.68;;
75367;SDS011;63954;51.948;5.888;2022-12-18T00:45:49;38.03;;;16.73;;
75367;SDS011;63954;51.948;5.888;2022-12-18T00:48:16;40.67;;;16.13;;
75367;SDS011;63954;51.948;5.888;2022-12-18T00:50:43;33.28;;;16.00;;
75367;SDS011;63954;51.948;5.888;2022-12-18T00:53:11;29.90;;;13.50;;
75367;SDS011;63954;51.948;5.888;2022-12-18T00:55:38;23.50;;;11.02;;
75367;SDS011;63954;51.948;5.888;2022-12-18T00:58:07;42.00;;;17.67;;
75367;SDS011;63954;51.948;5.888;2022-12-18T01:00:36;31.00;;;15.05;;
75367;SDS011;63954;51.948;5.888;2022-12-18T01:03:03;36.60;;;15.88;;
75367;SDS011;63954;51.948;5.888;2022-12-18T01:05:31;32.83;;;15.27;;
75367;SDS011;63954;51.948;5.888;2022-12-18T01:07:59;26.23;;;11.20;;
75367;SDS011;63954;51.948;5.888;2022-12-18T01:10:26;31.73;;;13.55;;
75367;SDS011;63954;51.948;5.888;2022-12-18T01:12:56;34.40;;;14.68;;
75367;SDS011;63954;51.948;5.888;2022-12-18T01:15:25;26.15;;;11.88;;
75367;SDS011;63954;51.948;5.888;2022-12-18T01:17:52;32.28;;;13.77;;
75367;SDS011;63954;51.948;5.888;2022-12-18T01:20:19;27.58;;;12.52;;
75367;SDS011;63954;51.948;5.888;2022-12-18T01:22:47;24.25;;;11.35;;
75367;SDS011;63954;51.948;5.888;2022-12-18T01:25:14;37.95;;;16.17;;
75367;SDS011;63954;51.948;5.888;2022-12-18T01:27:42;30.63;;;13.73;;
75367;SDS011;63954;51.948;5.888;2022-12-18T01:30:10;27.48;;;13.80;;
75367;SDS011;63954;51.948;5.888;2022-12-18T01:32:39;30.25;;;12.18;;
75367;SDS011;63954;51.948;5.888;2022-12-18T01:35:07;24.88;;;11.02;;
75367;SDS011;63954;51.948;5.888;2022-12-18T01:37:34;30.45;;;11.95;;
75367;SDS011;63954;51.948;5.888;2022-12-18T01:40:02;24.23;;;11.48;;
75367;SDS011;63954;51.948;5.888;2022-12-18T01:42:29;20.13;;;9.48;;
75367;SDS011;63954;51.948;5.888;2022-12-18T01:45:01;35.10;;;17.42;;
75367;SDS011;63954;51.948;5.888;2022-12-18T01:47:38;40.15;;;18.67;;
75367;SDS011;63954;51.948;5.888;2022-12-18T01:50:10;31.00;;;14.13;;
75367;SDS011;63954;51.948;5.888;2022-12-18T01:52:40;18.00;;;8.85;;
75367;SDS011;63954;51.948;5.888;2022-12-18T01:55:09;28.67;;;13.70;;
75367;SDS011;63954;51.948;5.888;2022-12-18T01:57:37;20.67;;;9.30;;
75367;SDS011;63954;51.948;5.888;2022-12-18T02:00:07;22.23;;;11.18;;
75367;SDS011;63954;51.948;5.888;2022-12-18T02:02:41;17.85;;;9.40;;
75367;SDS011;63954;51.948;5.888;2022-12-18T02:05:12;21.65;;;8.98;;
75367;SDS011;63954;51.948;5.888;2022-12-18T02:07:45;23.40;;;11.13;;
75367;SDS011;63954;51.948;5.888;2022-12-18T02:10:24;29.27;;;13.90;;
75367;SDS011;63954;51.948;5.888;2022-12-18T02:12:56;20.83;;;9.60;;
75367;SDS011;63954;51.948;5.888;2022-12-18T02:15:31;32.08;;;14.13;;
75367;SDS011;63954;51.948;5.888;2022-12-18T02:18:08;19.25;;;9.70;;
75367;SDS011;63954;51.948;5.888;2022-12-18T02:20:44;21.42;;;10.50;;
75367;SDS011;63954;51.948;5.888;2022-12-18T02:23:18;17.67;;;8.43;;
75367;SDS011;63954;51.948;5.888;2022-12-18T02:26:01;26.17;;;11.85;;
75367;SDS011;63954;51.948;5.888;2022-12-18T02:28:34;35.75;;;16.35;;
75367;SDS011;63954;51.948;5.888;2022-12-18T02:31:11;27.13;;;11.90;;
75367;SDS011;63954;51.948;5.888;2022-12-18T02:33:40;21.35;;;10.40;;
75367;SDS011;63954;51.948;5.888;2022-12-18T02:36:12;27.60;;;11.77;;
75367;SDS011;63954;51.948;5.888;2022-12-18T02:38:42;27.92;;;12.35;;
75367;SDS011;63954;51.948;5.888;2022-12-18T02:41:14;24.17;;;11.15;;
75367;SDS011;63954;51.948;5.888;2022-12-18T02:43:46;30.33;;;15.07;;
75367;SDS011;63954;51.948;5.888;2022-12-18T02:46:24;29.35;;;13.10;;
75367;SDS011;63954;51.948;5.888;2022-12-18T02:48:57;29.60;;;14.43;;
75367;SDS011;63954;51.948;5.888;2022-12-18T02:51:35;26.92;;;13.18;;
75367;SDS011;63954;51.948;5.888;2022-12-18T02:54:14;23.48;;;11.88;;
75367;SDS011;63954;51.948;5.888;2022-12-18T02:56:53;32.78;;;15.43;;
75367;SDS011;63954;51.948;5.888;2022-12-18T02:59:25;21.48;;;9.80;;
75367;SDS011;63954;51.948;5.888;2022-12-18T03:01:59;24.38;;;11.98;;
75367;SDS011;63954;51.948;5.888;2022-12-18T03:04:32;19.95;;;9.70;;
75367;SDS011;63954;51.948;5.888;2022-12-18T03:07:07;27.48;;;11.90;;
75367;SDS011;63954;51.948;5.888;2022-12-18T03:09:40;15.80;;;8.52;;
75367;SDS011;63954;51.948;5.888;2022-12-18T03:12:13;25.52;;;12.07;;
75367;SDS011;63954;51.948;5.888;2022-12-18T03:14:55;18.75;;;9.25;;
75367;SDS011;63954;51.948;5.888;2022-12-18T03:17:30;37.40;;;15.98;;
75367;SDS011;63954;51.948;5.888;2022-12-18T03:19:59;18.67;;;8.95;;
75367;SDS011;63954;51.948;5.888;2022-12-18T03:22:32;28.75;;;12.55;;
75367;SDS011;63954;51.948;5.888;2022-12-18T03:25:03;19.35;;;9.38;;
75367;SDS011;63954;51.948;5.888;2022-12-18T03:27:37;28.58;;;13.98;;
75367;SDS011;63954;51.948;5.888;2022-12-18T03:30:11;28.90;;;12.68;;
75367;SDS011;63954;51.948;5.888;2022-12-18T03:32:44;16.63;;;8.85;;
75367;SDS011;63954;51.948;5.888;2022-12-18T03:35:16;20.88;;;9.80;;
75367;SDS011;63954;51.948;5.888;2022-12-18T03:37:48;16.10;;;7.35;;
75367;SDS011;63954;51.948;5.888;2022-12-18T03:40:15;28.65;;;12.55;;
75367;SDS011;63954;51.948;5.888;2022-12-18T03:42:45;16.58;;;8.40;;
75367;SDS011;63954;51.948;5.888;2022-12-18T03:45:19;21.67;;;10.60;;
75367;SDS011;63954;51.948;5.888;2022-12-18T03:47:53;28.60;;;13.85;;
75367;SDS011;63954;51.948;5.888;2022-12-18T03:50:35;15.98;;;8.73;;
75367;SDS011;63954;51.948;5.888;2022-12-18T03:53:12;23.48;;;10.30;;
75367;SDS011;63954;51.948;5.888;2022-12-18T03:55:47;21.17;;;10.15;;
75367;SDS011;63954;51.948;5.888;2022-12-18T03:58:18;18.88;;;9.40;;
75367;SDS011;63954;51.948;5.888;2022-12-18T04:00:58;18.08;;;7.78;;
75367;SDS011;63954;51.948;5.888;2022-12-18T04:03:28;22.90;;;10.82;;
75367;SDS011;63954;51.948;5.888;2022-12-18T04:05:58;30.13;;;13.63;;
75367;SDS011;63954;51.948;5.888;2022-12-18T04:08:27;15.77;;;7.00;;
75367;SDS011;63954;51.948;5.888;2022-12-18T04:11:05;13.43;;;7.47;;
75367;SDS011;63954;51.948;5.888;2022-12-18T04:13:35;27.25;;;12.20;;
75367;SDS011;63954;51.948;5.888;2022-12-18T04:16:07;20.98;;;10.68;;
75367;SDS011;63954;51.948;5.888;2022-12-18T04:18:39;19.98;;;9.15;;
75367;SDS011;63954;51.948;5.888;2022-12-18T04:21:07;23.17;;;11.32;;
75367;SDS011;63954;51.948;5.888;2022-12-18T04:23:34;21.98;;;8.48;;
75367;SDS011;63954;51.948;5.888;2022-12-18T04:26:01;16.67;;;8.40;;
75367;SDS011;63954;51.948;5.888;2022-12-18T04:28:45;16.40;;;8.70;;
75367;SDS011;63954;51.948;5.888;2022-12-18T04:31:12;22.40;;;11.25;;
75367;SDS011;63954;51.948;5.888;2022-12-18T04:33:40;23.45;;;11.80;;
75367;SDS011;63954;51.948;5.888;2022-12-18T04:36:08;18.95;;;9.38;;
75367;SDS011;63954;51.948;5.888;2022-12-18T04:38:35;17.40;;;8.73;;
75367;SDS011;63954;51.948;5.888;2022-12-18T04:41:07;24.80;;;11.45;;
75367;SDS011;63954;51.948;5.888;2022-12-18T04:43:35;19.67;;;9.50;;
75367;SDS011;63954;51.948;5.888;2022-12-18T04:46:04;20.40;;;10.07;;
75367;SDS011;63954;51.948;5.888;2022-12-18T04:48:32;16.85;;;7.22;;
75367;SDS011;63954;51.948;5.888;2022-12-18T04:51:01;16.35;;;8.70;;
75367;SDS011;63954;51.948;5.888;2022-12-18T04:53:29;20.23;;;9.02;;
75367;SDS011;63954;51.948;5.888;2022-12-18T04:56:03;17.05;;;9.18;;
75367;SDS011;63954;51.948;5.888;2022-12-18T04:58:31;11.32;;;5.32;;
75367;SDS011;63954;51.948;5.888;2022-12-18T05:00:58;15.73;;;7.95;;
75367;SDS011;63954;51.948;5.888;2022-12-18T05:03:27;19.58;;;8.15;;
75367;SDS011;63954;51.948;5.888;2022-12-18T05:08:23;12.93;;;6.05;;
75367;SDS011;63954;51.948;5.888;2022-12-18T05:10:52;12.00;;;6.05;;
75367;SDS011;63954;51.948;5.888;2022-12-18T05:13:25;16.65;;;8.18;;
75367;SDS011;63954;51.948;5.888;2022-12-18T05:15:52;15.93;;;7.60;;
75367;SDS011;63954;51.948;5.888;2022-12-18T05:18:19;12.48;;;6.13;;
75367;SDS011;63954;51.948;5.888;2022-12-18T05:20:48;19.20;;;8.95;;
75367;SDS011;63954;51.948;5.888;2022-12-18T05:23:16;13.50;;;5.22;;
75367;SDS011;63954;51.948;5.888;2022-12-18T05:25:46;15.00;;;6.20;;
75367;SDS011;63954;51.948;5.888;2022-12-18T05:28:13;13.40;;;6.15;;
75367;SDS011;63954;51.948;5.888;2022-12-18T05:30:41;14.23;;;6.57;;
75367;SDS011;63954;51.948;5.888;2022-12-18T05:33:08;16.58;;;7.90;;
75367;SDS011;63954;51.948;5.888;2022-12-18T05:35:37;21.35;;;10.57;;
75367;SDS011;63954;51.948;5.888;2022-12-18T05:38:05;15.27;;;6.07;;
75367;SDS011;63954;51.948;5.888;2022-12-18T05:40:32;14.40;;;7.32;;
75367;SDS011;63954;51.948;5.888;2022-12-18T05:42:59;16.00;;;7.45;;
75367;SDS011;63954;51.948;5.888;2022-12-18T05:45:27;22.10;;;10.57;;
75367;SDS011;63954;51.948;5.888;2022-12-18T05:47:54;20.40;;;10.57;;
75367;SDS011;63954;51.948;5.888;2022-12-18T05:50:21;14.57;;;7.20;;
75367;SDS011;63954;51.948;5.888;2022-12-18T05:52:48;16.55;;;8.27;;
75367;SDS011;63954;51.948;5.888;2022-12-18T05:55:17;11.80;;;5.88;;
75367;SDS011;63954;51.948;5.888;2022-12-18T05:57:44;22.35;;;9.25;;
75367;SDS011;63954;51.948;5.888;2022-12-18T06:00:11;16.10;;;7.78;;
75367;SDS011;63954;51.948;5.888;2022-12-18T06:02:39;13.45;;;5.32;;
75367;SDS011;63954;51.948;5.888;2022-12-18T06:05:07;20.98;;;9.88;;
75367;SDS011;63954;51.948;5.888;2022-12-18T06:07:34;12.52;;;5.55;;
75367;SDS011;63954;51.948;5.888;2022-12-18T06:10:01;15.93;;;6.95;;
75367;SDS011;63954;51.948;5.888;2022-12-18T06:12:30;13.63;;;7.03;;
75367;SDS011;63954;51.948;5.888;2022-12-18T06:14:59;14.48;;;6.95;;
75367;SDS011;63954;51.948;5.888;2022-12-18T06:17:27;15.20;;;8.10;;
75367;SDS011;63954;51.948;5.888;2022-12-18T06:19:55;12.88;;;6.43;;
75367;SDS011;63954;51.948;5.888;2022-12-18T06:22:22;13.90;;;6.57;;
75367;SDS011;63954;51.948;5.888;2022-12-18T06:24:49;18.45;;;7.40;;
75367;SDS011;63954;51.948;5.888;2022-12-18T06:27:16;17.58;;;8.45;;
75367;SDS011;63954;51.948;5.888;2022-12-18T06:29:45;15.65;;;7.68;;
75367;SDS011;63954;51.948;5.888;2022-12-18T06:32:13;21.48;;;10.65;;
75367;SDS011;63954;51.948;5.888;2022-12-18T06:34:40;20.20;;;9.60;;
75367;SDS011;63954;51.948;5.888;2022-12-18T06:37:07;10.50;;;6.47;;
75367;SDS011;63954;51.948;5.888;2022-12-18T06:39:34;10.82;;;5.40;;
75367;SDS011;63954;51.948;5.888;2022-12-18T06:42:02;17.02;;;8.05;;
75367;SDS011;63954;51.948;5.888;2022-12-18T06:44:29;13.10;;;6.15;;
75367;SDS011;63954;51.948;5.888;2022-12-18T06:46:59;18.65;;;9.65;;
75367;SDS011;63954;51.948;5.888;2022-12-18T06:49:26;16.98;;;8.88;;
75367;SDS011;63954;51.948;5.888;2022-12-18T06:51:53;14.10;;;5.65;;
75367;SDS011;63954;51.948;5.888;2022-12-18T06:54:21;13.52;;;6.35;;
75367;SDS011;63954;51.948;5.888;2022-12-18T06:56:48;10.38;;;5.05;;
75367;SDS011;63954;51.948;5.888;2022-12-18T06:59:15;19.27;;;11.38;;
75367;SDS011;63954;51.948;5.888;2022-12-18T07:01:43;15.68;;;7.53;;
75367;SDS011;63954;51.948;5.888;2022-12-18T07:04:11;18.35;;;8.68;;
75367;SDS011;63954;51.948;5.888;2022-12-18T07:06:38;14.43;;;7.20;;
75367;SDS011;63954;51.948;5.888;2022-12-18T07:09:08;13.80;;;5.65;;
75367;SDS011;63954;51.948;5.888;2022-12-18T07:14:02;18.35;;;9.02;;
75367;SDS011;63954;51.948;5.888;2022-12-18T07:16:30;11.48;;;5.60;;
75367;SDS011;63954;51.948;5.888;2022-12-18T07:18:57;14.88;;;6.05;;
75367;SDS011;63954;51.948;5.888;2022-12-18T07:21:35;10.82;;;5.57;;
75367;SDS011;63954;51.948;5.888;2022-12-18T07:24:02;17.92;;;7.97;;
75367;SDS011;63954;51.948;5.888;2022-12-18T07:26:30;16.42;;;8.05;;
75367;SDS011;63954;51.948;5.888;2022-12-18T07:28:57;12.60;;;6.30;;
75367;SDS011;63954;51.948;5.888;2022-12-18T07:31:25;18.70;;;8.82;;
75367;SDS011;63954;51.948;5.888;2022-12-18T07:33:53;16.35;;;8.10;;
75367;SDS011;63954;51.948;5.888;2022-12-18T07:36:21;14.77;;;7.20;;
75367;SDS011;63954;51.948;5.888;2022-12-18T07:38:51;16.13;;;9.02;;
75367;SDS011;63954;51.948;5.888;2022-12-18T07:41:18;13.50;;;6.60;;
75367;SDS011;63954;51.948;5.888;2022-12-18T07:43:45;11.93;;;6.25;;
75367;SDS011;63954;51.948;5.888;2022-12-18T07:46:13;12.00;;;6.35;;
75367;SDS011;63954;51.948;5.888;2022-12-18T07:48:41;18.25;;;9.18;;
75367;SDS011;63954;51.948;5.888;2022-12-18T07:51:08;19.50;;;9.48;;
75367;SDS011;63954;51.948;5.888;2022-12-18T07:53:39;19.58;;;10.20;;
75367;SDS011;63954;51.948;5.888;2022-12-18T07:56:13;17.25;;;8.52;;
75367;SDS011;63954;51.948;5.888;2022-12-18T07:58:41;14.48;;;6.53;;
75367;SDS011;63954;51.948;5.888;2022-12-18T08:01:11;22.17;;;8.93;;
75367;SDS011;63954;51.948;5.888;2022-12-18T08:03:44;18.60;;;8.80;;
75367;SDS011;63954;51.948;5.888;2022-12-18T08:06:13;12.18;;;5.30;;
75367;SDS011;63954;51.948;5.888;2022-12-18T08:08:41;16.30;;;6.05;;
75367;SDS011;63954;51.948;5.888;2022-12-18T08:11:43;13.20;;;6.38;;
75367;SDS011;63954;51.948;5.888;2022-12-18T08:22:26;9.30;;;4.32;;
75367;SDS011;63954;51.948;5.888;2022-12-18T08:24:54;18.27;;;9.27;;
75367;SDS011;63954;51.948;5.888;2022-12-18T08:27:22;21.65;;;8.43;;
75367;SDS011;63954;51.948;5.888;2022-12-18T08:29:50;15.20;;;7.15;;
75367;SDS011;63954;51.948;5.888;2022-12-18T08:32:17;20.00;;;9.23;;
75367;SDS011;63954;51.948;5.888;2022-12-18T08:38:32;15.85;;;7.32;;
75367;SDS011;63954;51.948;5.888;2022-12-18T08:41:15;16.20;;;6.70;;
75367;SDS011;63954;51.948;5.888;2022-12-18T08:43:48;14.18;;;6.00;;
75367;SDS011;63954;51.948;5.888;2022-12-18T08:46:34;11.68;;;5.55;;
75367;SDS011;63954;51.948;5.888;2022-12-18T08:49:03;14.38;;;6.00;;
75367;SDS011;63954;51.948;5.888;2022-12-18T08:51:31;14.05;;;6.68;;
75367;SDS011;63954;51.948;5.888;2022-12-18T08:53:59;17.25;;;6.75;;
75367;SDS011;63954;51.948;5.888;2022-12-18T08:56:26;14.98;;;6.65;;
75367;SDS011;63954;51.948;5.888;2022-12-18T09:01:50;18.00;;;6.85;;
75367;SDS011;63954;51.948;5.888;2022-12-18T09:04:20;14.82;;;6.47;;
75367;SDS011;63954;51.948;5.888;2022-12-18T09:06:58;10.40;;;5.53;;
75367;SDS011;63954;51.948;5.888;2022-12-18T09:09:40;13.68;;;5.68;;
75367;SDS011;63954;51.948;5.888;2022-12-18T09:12:10;15.00;;;6.53;;
75367;SDS011;63954;51.948;5.888;2022-12-18T09:17:45;14.38;;;6.00;;
75367;SDS011;63954;51.948;5.888;2022-12-18T09:20:32;10.15;;;4.43;;
75367;SDS011;63954;51.948;5.888;2022-12-18T09:23:41;12.73;;;6.10;;
75367;SDS011;63954;51.948;5.888;2022-12-18T09:26:10;11.35;;;4.47;;
75367;SDS011;63954;51.948;5.888;2022-12-18T09:28:46;13.40;;;6.03;;
75367;SDS011;63954;51.948;5.888;2022-12-18T09:34:22;13.05;;;5.28;;
75367;SDS011;63954;51.948;5.888;2022-12-18T09:36:49;10.75;;;3.92;;
75367;SDS011;63954;51.948;5.888;2022-12-18T09:39:17;10.85;;;4.63;;
75367;SDS011;63954;51.948;5.888;2022-12-18T09:41:45;14.15;;;5.50;;
75367;SDS011;63954;51.948;5.888;2022-12-18T09:44:20;8.82;;;4.75;;
75367;SDS011;63954;51.948;5.888;2022-12-18T09:49:31;12.65;;;5.47;;
75367;SDS011;63954;51.948;5.888;2022-12-18T09:52:04;11.45;;;5.10;;
75367;SDS011;63954;51.948;5.888;2022-12-18T09:54:38;10.80;;;4.85;;
75367;SDS011;63954;51.948;5.888;2022-12-18T09:57:09;12.15;;;6.28;;
75367;SDS011;63954;51.948;5.888;2022-12-18T09:59:41;14.20;;;5.55;;
75367;SDS011;63954;51.948;5.888;2022-12-18T10:02:19;12.68;;;5.60;;
75367;SDS011;63954;51.948;5.888;2022-12-18T10:04:59;13.55;;;6.25;;
75367;SDS011;63954;51.948;5.888;2022-12-18T10:07:33;12.70;;;5.60;;
75367;SDS011;63954;51.948;5.888;2022-12-18T10:10:16;11.65;;;5.65;;
75367;SDS011;63954;51.948;5.888;2022-12-18T10:12:55;11.77;;;4.78;;
75367;SDS011;63954;51.948;5.888;2022-12-18T10:15:31;12.80;;;5.38;;
75367;SDS011;63954;51.948;5.888;2022-12-18T10:18:06;14.93;;;6.47;;
75367;SDS011;63954;51.948;5.888;2022-12-18T10:20:47;14.35;;;6.50;;
75367;SDS011;63954;51.948;5.888;2022-12-18T10:23:18;11.90;;;5.63;;
75367;SDS011;63954;51.948;5.888;2022-12-18T10:25:53;14.52;;;6.28;;
75367;SDS011;63954;51.948;5.888;2022-12-18T10:28:27;10.90;;;5.05;;
75367;SDS011;63954;51.948;5.888;2022-12-18T10:30:59;12.82;;;5.43;;
75367;SDS011;63954;51.948;5.888;2022-12-18T10:33:28;11.38;;;4.97;;
75367;SDS011;63954;51.948;5.888;2022-12-18T10:35:58;12.45;;;4.53;;
75367;SDS011;63954;51.948;5.888;2022-12-18T10:38:27;11.13;;;5.50;;
75367;SDS011;63954;51.948;5.888;2022-12-18T10:40:57;13.63;;;5.80;;
75367;SDS011;63954;51.948;5.888;2022-12-18T10:43:26;12.70;;;5.40;;
75367;SDS011;63954;51.948;5.888;2022-12-18T10:46:00;15.68;;;6.57;;
75367;SDS011;63954;51.948;5.888;2022-12-18T10:48:50;13.18;;;5.50;;
75367;SDS011;63954;51.948;5.888;2022-12-18T10:51:23;10.23;;;4.88;;
75367;SDS011;63954;51.948;5.888;2022-12-18T10:53:52;12.45;;;4.93;;
75367;SDS011;63954;51.948;5.888;2022-12-18T10:56:22;13.32;;;6.03;;
75367;SDS011;63954;51.948;5.888;2022-12-18T10:58:55;14.95;;;6.32;;
75367;SDS011;63954;51.948;5.888;2022-12-18T11:01:25;10.48;;;5.38;;
75367;SDS011;63954;51.948;5.888;2022-12-18T11:04:02;11.48;;;5.13;;
75367;SDS011;63954;51.948;5.888;2022-12-18T11:06:36;14.32;;;6.32;;
75367;SDS011;63954;51.948;5.888;2022-12-18T11:09:20;12.30;;;5.32;;
75367;SDS011;63954;51.948;5.888;2022-12-18T11:11:49;11.57;;;5.75;;
75367;SDS011;63954;51.948;5.888;2022-12-18T11:14:20;13.45;;;5.75;;
75367;SDS011;63954;51.948;5.888;2022-12-18T11:16:49;11.90;;;5.95;;
75367;SDS011;63954;51.948;5.888;2022-12-18T11:19:24;16.35;;;6.35;;
75367;SDS011;63954;51.948;5.888;2022-12-18T11:21:58;12.25;;;6.07;;
75367;SDS011;63954;51.948;5.888;2022-12-18T11:24:27;12.32;;;5.82;;
75367;SDS011;63954;51.948;5.888;2022-12-18T11:26:57;12.82;;;6.95;;
75367;SDS011;63954;51.948;5.888;2022-12-18T11:29:30;11.23;;;5.55;;
75367;SDS011;63954;51.948;5.888;2022-12-18T11:33:47;12.93;;;5.03;;
75367;SDS011;63954;51.948;5.888;2022-12-18T11:36:21;13.82;;;5.50;;
75367;SDS011;63954;51.948;5.888;2022-12-18T11:38:49;7.63;;;3.17;;
75367;SDS011;63954;51.948;5.888;2022-12-18T11:41:21;16.17;;;6.68;;
75367;SDS011;63954;51.948;5.888;2022-12-18T11:44:15;12.48;;;4.78;;
75367;SDS011;63954;51.948;5.888;2022-12-18T11:46:48;10.98;;;5.07;;
75367;SDS011;63954;51.948;5.888;2022-12-18T11:49:22;14.13;;;5.95;;
75367;SDS011;63954;51.948;5.888;2022-12-18T11:51:55;11.63;;;5.82;;
75367;SDS011;63954;51.948;5.888;2022-12-18T11:54:27;10.80;;;4.63;;
75367;SDS011;63954;51.948;5.888;2022-12-18T11:56:55;14.73;;;5.82;;
75367;SDS011;63954;51.948;5.888;2022-12-18T11:59:28;12.82;;;4.65;;
75367;SDS011;63954;51.948;5.888;2022-12-18T12:02:09;11.90;;;4.93;;
75367;SDS011;63954;51.948;5.888;2022-12-18T12:04:53;11.38;;;4.90;;
75367;SDS011;63954;51.948;5.888;2022-12-18T12:07:37;12.30;;;5.45;;
75367;SDS011;63954;51.948;5.888;2022-12-18T12:10:12;14.32;;;5.82;;
75367;SDS011;63954;51.948;5.888;2022-12-18T12:12:55;11.80;;;5.78;;
75367;SDS011;63954;51.948;5.888;2022-12-18T12:15:37;13.43;;;5.13;;
75367;SDS011;63954;51.948;5.888;2022-12-18T12:18:15;11.88;;;5.28;;
75367;SDS011;63954;51.948;5.888;2022-12-18T12:20:53;13.68;;;5.20;;
75367;SDS011;63954;51.948;5.888;2022-12-18T12:23:30;12.30;;;5.50;;
75367;SDS011;63954;51.948;5.888;2022-12-18T12:26:04;16.02;;;5.97;;
75367;SDS011;63954;51.948;5.888;2022-12-18T12:28:45;12.80;;;5.65;;
75367;SDS011;63954;51.948;5.888;2022-12-18T12:31:35;9.63;;;4.25;;
75367;SDS011;63954;51.948;5.888;2022-12-18T12:34:12;12.38;;;5.68;;
75367;SDS011;63954;51.948;5.888;2022-12-18T12:36:49;15.43;;;6.18;;
75367;SDS011;63954;51.948;5.888;2022-12-18T12:39:31;13.68;;;7.03;;
75367;SDS011;63954;51.948;5.888;2022-12-18T12:42:03;16.13;;;5.82;;
75367;SDS011;63954;51.948;5.888;2022-12-18T12:44:50;14.85;;;5.90;;
75367;SDS011;63954;51.948;5.888;2022-12-18T12:47:21;16.05;;;6.93;;
75367;SDS011;63954;51.948;5.888;2022-12-18T12:49:54;17.48;;;7.18;;
75367;SDS011;63954;51.948;5.888;2022-12-18T12:52:26;11.57;;;5.00;;
75367;SDS011;63954;51.948;5.888;2022-12-18T12:55:00;16.55;;;7.63;;
75367;SDS011;63954;51.948;5.888;2022-12-18T12:57:36;18.50;;;6.60;;
75367;SDS011;63954;51.948;5.888;2022-12-18T13:00:10;14.38;;;7.10;;
75367;SDS011;63954;51.948;5.888;2022-12-18T13:02:42;13.32;;;5.90;;
75367;SDS011;63954;51.948;5.888;2022-12-18T13:05:17;12.02;;;8.45;;
75367;SDS011;63954;51.948;5.888;2022-12-18T13:07:51;14.48;;;6.32;;
75367;SDS011;63954;51.948;5.888;2022-12-18T13:10:30;13.93;;;6.72;;
75367;SDS011;63954;51.948;5.888;2022-12-18T13:13:00;14.48;;;6.88;;
75367;SDS011;63954;51.948;5.888;2022-12-18T13:15:38;12.68;;;5.63;;
75367;SDS011;63954;51.948;5.888;2022-12-18T13:18:13;15.75;;;6.07;;
75367;SDS011;63954;51.948;5.888;2022-12-18T13:20:43;13.60;;;6.57;;
75367;SDS011;63954;51.948;5.888;2022-12-18T13:26:28;15.73;;;8.20;;
75367;SDS011;63954;51.948;5.888;2022-12-18T13:28:59;16.45;;;7.13;;
75367;SDS011;63954;51.948;5.888;2022-12-18T13:34:33;15.25;;;7.47;;
75367;SDS011;63954;51.948;5.888;2022-12-18T13:43:26;13.52;;;6.43;;
75367;SDS011;63954;51.948;5.888;2022-12-18T13:46:03;15.73;;;7.47;;
75367;SDS011;63954;51.948;5.888;2022-12-18T13:48:34;19.17;;;7.10;;
75367;SDS011;63954;51.948;5.888;2022-12-18T13:51:06;14.57;;;5.70;;
75367;SDS011;63954;51.948;5.888;2022-12-18T13:53:39;15.50;;;6.93;;
75367;SDS011;63954;51.948;5.888;2022-12-18T13:56:21;12.00;;;4.68;;
75367;SDS011;63954;51.948;5.888;2022-12-18T13:59:09;14.95;;;6.55;;
75367;SDS011;63954;51.948;5.888;2022-12-18T14:01:44;14.02;;;6.30;;
75367;SDS011;63954;51.948;5.888;2022-12-18T14:04:17;16.20;;;7.35;;
75367;SDS011;63954;51.948;5.888;2022-12-18T14:06:47;12.68;;;5.43;;
75367;SDS011;63954;51.948;5.888;2022-12-18T14:09:18;13.00;;;5.35;;
75367;SDS011;63954;51.948;5.888;2022-12-18T14:11:49;14.05;;;5.47;;
75367;SDS011;63954;51.948;5.888;2022-12-18T14:14:19;17.13;;;6.75;;
75367;SDS011;63954;51.948;5.888;2022-12-18T14:16:46;15.80;;;6.97;;
75367;SDS011;63954;51.948;5.888;2022-12-18T14:19:14;14.90;;;7.20;;
75367;SDS011;63954;51.948;5.888;2022-12-18T14:21:47;17.92;;;6.68;;
75367;SDS011;63954;51.948;5.888;2022-12-18T14:24:16;15.00;;;8.20;;
75367;SDS011;63954;51.948;5.888;2022-12-18T14:26:45;16.50;;;6.47;;
75367;SDS011;63954;51.948;5.888;2022-12-18T14:29:26;14.38;;;6.15;;
75367;SDS011;63954;51.948;5.888;2022-12-18T14:32:07;16.08;;;6.45;;
75367;SDS011;63954;51.948;5.888;2022-12-18T14:34:39;11.27;;;4.63;;
75367;SDS011;63954;51.948;5.888;2022-12-18T14:37:09;13.82;;;6.47;;
75367;SDS011;63954;51.948;5.888;2022-12-18T14:39:37;12.32;;;6.20;;
75367;SDS011;63954;51.948;5.888;2022-12-18T14:42:09;16.77;;;6.70;;
75367;SDS011;63954;51.948;5.888;2022-12-18T14:44:38;20.08;;;9.10;;
75367;SDS011;63954;51.948;5.888;2022-12-18T14:47:12;14.85;;;7.65;;
75367;SDS011;63954;51.948;5.888;2022-12-18T14:49:41;15.35;;;6.85;;
75367;SDS011;63954;51.948;5.888;2022-12-18T14:52:13;15.13;;;6.35;;
75367;SDS011;63954;51.948;5.888;2022-12-18T14:54:48;17.70;;;7.78;;
75367;SDS011;63954;51.948;5.888;2022-12-18T14:57:18;13.57;;;5.95;;
75367;SDS011;63954;51.948;5.888;2022-12-18T14:59:50;14.93;;;6.07;;
75367;SDS011;63954;51.948;5.888;2022-12-18T15:02:18;16.83;;;6.70;;
75367;SDS011;63954;51.948;5.888;2022-12-18T15:04:59;13.95;;;5.50;;
75367;SDS011;63954;51.948;5.888;2022-12-18T15:07:33;16.65;;;7.57;;
75367;SDS011;63954;51.948;5.888;2022-12-18T15:10:09;14.95;;;5.72;;
75367;SDS011;63954;51.948;5.888;2022-12-18T15:12:41;16.20;;;6.47;;
75367;SDS011;63954;51.948;5.888;2022-12-18T15:20:48;13.18;;;4.95;;
75367;SDS011;63954;51.948;5.888;2022-12-18T15:25:56;11.63;;;5.93;;
75367;SDS011;63954;51.948;5.888;2022-12-18T15:28:25;14.73;;;7.63;;
75367;SDS011;63954;51.948;5.888;2022-12-18T15:31:01;18.08;;;7.28;;
75367;SDS011;63954;51.948;5.888;2022-12-18T15:33:33;13.90;;;6.35;;
75367;SDS011;63954;51.948;5.888;2022-12-18T15:36:03;14.63;;;6.75;;
75367;SDS011;63954;51.948;5.888;2022-12-18T15:38:31;16.15;;;7.05;;
75367;SDS011;63954;51.948;5.888;2022-12-18T15:40:58;16.50;;;7.45;;
75367;SDS011;63954;51.948;5.888;2022-12-18T15:43:26;16.05;;;7.68;;
75367;SDS011;63954;51.948;5.888;2022-12-18T15:46:04;13.48;;;6.13;;
75367;SDS011;63954;51.948;5.888;2022-12-18T15:48:36;12.40;;;6.80;;